createdAt,value
2022-11-28T00:00:54.473Z,21.54
2022-11-28T00:01:54.522Z,22.19
2022-11-28T00:02:54.655Z,20.90
2022-11-28T00:03:54.611Z,20.90
2022-11-28T00:04:54.681Z,20.90
2022-11-28T00:05:54.745Z,20.90
2022-11-28T00:06:54.941Z,20.90
2022-11-28T00:07:55.013Z,20.58
2022-11-28T00:08:55.001Z,20.25
2022-11-28T00:09:55.087Z,20.90
2022-11-28T00:10:55.161Z,21.54
2022-11-28T00:11:55.251Z,21.54
2022-11-28T00:12:55.349Z,20.90
2022-11-28T00:13:55.435Z,20.90
2022-11-28T00:15:01.479Z,21.87
2022-11-28T00:15:55.604Z,20.90
2022-11-28T00:16:55.652Z,21.22
2022-11-28T00:17:55.845Z,20.58
2022-11-28T00:18:55.837Z,20.58
2022-11-28T00:19:55.910Z,20.90
2022-11-28T00:20:56.014Z,20.58
2022-11-28T00:21:56.091Z,20.58
2022-11-28T00:22:56.190Z,20.90
2022-11-28T00:23:56.369Z,22.83
2022-11-28T00:24:56.329Z,20.25
2022-11-28T00:25:56.388Z,22.51
2022-11-28T00:26:56.482Z,20.58
2022-11-28T00:27:56.566Z,20.90
2022-11-28T00:28:56.755Z,22.83
2022-11-28T00:29:56.724Z,22.19
2022-11-28T00:30:56.808Z,22.83
2022-11-28T00:31:56.906Z,21.22
2022-11-28T00:32:56.946Z,22.51
2022-11-28T00:33:57.041Z,21.54
2022-11-28T00:34:57.116Z,20.58
2022-11-28T00:35:57.177Z,21.54
2022-11-28T00:36:57.254Z,21.22
2022-11-28T00:37:57.327Z,20.58
2022-11-28T00:38:57.404Z,20.58
2022-11-28T00:39:57.506Z,22.51
2022-11-28T00:40:57.562Z,20.90
2022-11-28T00:41:57.651Z,20.90
2022-11-28T00:42:57.727Z,20.25
2022-11-28T00:43:57.790Z,21.22
2022-11-28T00:44:57.857Z,21.87
2022-11-28T00:46:04.465Z,20.90
2022-11-28T00:46:58.028Z,20.90
2022-11-28T00:47:58.127Z,20.58
2022-11-28T00:48:58.206Z,20.90
2022-11-28T00:49:58.262Z,20.90
2022-11-28T00:50:58.334Z,20.58
2022-11-28T00:51:58.537Z,20.90
2022-11-28T00:52:58.518Z,20.58
2022-11-28T00:53:58.627Z,20.90
2022-11-28T00:54:58.725Z,21.54
2022-11-28T00:55:58.787Z,21.22
2022-11-28T00:56:58.875Z,20.58
2022-11-28T00:57:59.031Z,20.58
2022-11-28T00:58:59.015Z,20.90
2022-11-28T00:59:59.080Z,20.58
2022-11-28T01:00:59.219Z,20.58
2022-11-28T01:01:59.272Z,21.87
2022-11-28T01:02:59.313Z,22.51
2022-11-28T01:03:59.493Z,20.58
2022-11-28T01:04:59.475Z,20.58
2022-11-28T01:05:59.573Z,20.58
2022-11-28T01:06:59.666Z,21.54
2022-11-28T01:07:59.833Z,20.58
2022-11-28T01:08:59.851Z,22.51
2022-11-28T01:09:59.939Z,20.58
2022-11-28T01:10:59.990Z,20.58
2022-11-28T01:12:00.084Z,21.22
2022-11-28T01:13:00.144Z,20.25
2022-11-28T01:14:00.228Z,20.90
2022-11-28T01:15:00.328Z,20.90
2022-11-28T01:16:00.465Z,20.90
2022-11-28T01:17:06.437Z,20.58
2022-11-28T01:18:00.568Z,20.90
2022-11-28T01:19:00.626Z,20.58
2022-11-28T01:20:00.706Z,20.90
2022-11-28T01:21:00.791Z,19.93
2022-11-28T01:22:00.843Z,20.90
2022-11-28T01:23:00.919Z,22.51
2022-11-28T01:24:00.990Z,20.25
2022-11-28T01:25:01.055Z,20.90
2022-11-28T01:26:01.132Z,20.58
2022-11-28T01:27:01.332Z,20.90
2022-11-28T01:28:01.301Z,20.58
2022-11-28T01:29:01.375Z,22.19
2022-11-28T01:30:01.450Z,20.58
2022-11-28T01:31:01.594Z,20.90
2022-11-28T01:32:01.756Z,20.58
2022-11-28T01:33:01.677Z,21.22
2022-11-28T01:34:01.737Z,20.58
2022-11-28T01:35:01.820Z,21.22
2022-11-28T01:36:01.918Z,20.25
2022-11-28T01:37:01.976Z,20.25
2022-11-28T01:38:02.103Z,20.58
2022-11-28T01:39:02.155Z,20.90
2022-11-28T01:40:02.220Z,20.58
2022-11-28T01:41:02.278Z,21.22
2022-11-28T01:42:02.376Z,20.90
2022-11-28T01:43:02.576Z,20.58
2022-11-28T01:44:02.556Z,19.93
2022-11-28T01:45:02.606Z,21.87
2022-11-28T01:46:02.701Z,22.51
2022-11-28T01:47:02.849Z,20.25
2022-11-28T01:48:09.385Z,20.58
2022-11-28T01:49:02.978Z,20.25
2022-11-28T01:50:03.053Z,21.87
2022-11-28T01:51:03.131Z,20.58
2022-11-28T01:52:03.245Z,21.22
2022-11-28T01:53:03.306Z,22.19
2022-11-28T01:54:03.497Z,20.25
2022-11-28T01:55:03.477Z,20.58
2022-11-28T01:56:03.539Z,21.22
2022-11-28T01:57:03.614Z,20.90
2022-11-28T01:58:03.714Z,20.58
2022-11-28T01:59:03.813Z,20.58
2022-11-28T02:00:03.884Z,20.58
2022-11-28T02:01:03.997Z,20.25
2022-11-28T02:02:04.061Z,21.22
2022-11-28T02:03:04.112Z,20.90
2022-11-28T02:04:04.209Z,20.90
2022-11-28T02:05:04.300Z,20.58
2022-11-28T02:06:04.456Z,20.58
2022-11-28T02:07:04.439Z,20.90
2022-11-28T02:08:04.498Z,20.90
2022-11-28T02:09:04.617Z,20.90
2022-11-28T02:10:04.672Z,21.22
2022-11-28T02:11:04.752Z,20.58
2022-11-28T02:12:04.841Z,20.58
2022-11-28T02:13:04.882Z,20.90
2022-11-28T02:14:04.962Z,20.25
2022-11-28T02:15:05.056Z,21.22
2022-11-28T02:16:05.203Z,20.58
2022-11-28T02:17:05.247Z,21.22
2022-11-28T02:18:05.426Z,20.58
2022-11-28T02:19:11.375Z,20.25
2022-11-28T02:20:05.476Z,20.90
2022-11-28T02:21:05.570Z,20.90
2022-11-28T02:22:05.687Z,20.58
2022-11-28T02:23:05.769Z,20.58
2022-11-28T02:24:05.869Z,20.58
2022-11-28T02:25:05.944Z,22.83
2022-11-28T02:26:06.001Z,20.90
2022-11-28T02:27:06.068Z,20.58
2022-11-28T02:28:06.176Z,20.90
2022-11-28T02:29:06.290Z,20.58
2022-11-28T02:30:06.352Z,20.90
2022-11-28T02:31:06.548Z,20.90
2022-11-28T02:32:06.517Z,22.51
2022-11-28T02:33:06.622Z,20.90
2022-11-28T02:34:06.834Z,22.51
2022-11-28T02:35:06.784Z,20.58
2022-11-28T02:36:06.849Z,20.58
2022-11-28T02:37:06.918Z,20.25
2022-11-28T02:38:07.017Z,20.58
2022-11-28T02:39:07.117Z,20.58
2022-11-28T02:40:07.233Z,20.25
2022-11-28T02:41:07.271Z,20.58
2022-11-28T02:42:07.349Z,20.90
2022-11-28T02:43:07.416Z,20.58
2022-11-28T02:44:07.523Z,21.22
2022-11-28T02:45:07.707Z,21.22
2022-11-28T02:46:07.686Z,20.58
2022-11-28T02:47:07.792Z,21.22
2022-11-28T02:48:07.837Z,20.90
2022-11-28T02:49:07.913Z,20.90
2022-11-28T02:50:14.428Z,20.58
2022-11-28T02:51:08.093Z,22.83
2022-11-28T02:52:08.196Z,22.19
2022-11-28T02:53:08.255Z,20.90
2022-11-28T02:54:08.331Z,20.58
2022-11-28T02:55:08.430Z,21.87
2022-11-28T02:56:08.637Z,20.58
2022-11-28T02:57:08.624Z,20.25
2022-11-28T02:58:08.716Z,20.58
2022-11-28T02:59:08.786Z,20.25
2022-11-28T03:00:10.858Z,20.58
2022-11-28T03:01:08.979Z,20.90
2022-11-28T03:02:09.259Z,20.58
2022-11-28T03:03:09.112Z,20.90
2022-11-28T03:04:09.199Z,20.25
2022-11-28T03:05:09.265Z,20.58
2022-11-28T03:06:09.356Z,20.90
2022-11-28T03:07:09.432Z,20.58
2022-11-28T03:08:09.649Z,22.19
2022-11-28T03:09:09.628Z,20.90
2022-11-28T03:10:09.722Z,21.22
2022-11-28T03:11:09.799Z,20.58
2022-11-28T03:12:09.859Z,20.25
2022-11-28T03:13:09.956Z,20.90
2022-11-28T03:14:10.148Z,20.90
2022-11-28T03:15:10.135Z,21.22
2022-11-28T03:16:10.235Z,20.90
2022-11-28T03:17:10.272Z,20.90
2022-11-28T03:18:10.358Z,20.58
2022-11-28T03:19:10.424Z,20.25
2022-11-28T03:20:10.618Z,20.90
2022-11-28T03:21:16.564Z,20.90
2022-11-28T03:22:10.695Z,20.58
2022-11-28T03:23:10.792Z,20.58
2022-11-28T03:24:10.895Z,21.22
2022-11-28T03:25:10.953Z,20.90
2022-11-28T03:26:11.044Z,20.25
2022-11-28T03:27:11.123Z,21.22
2022-11-28T03:28:11.229Z,22.19
2022-11-28T03:29:11.290Z,20.58
2022-11-28T03:30:11.358Z,20.58
2022-11-28T03:31:11.506Z,20.58
2022-11-28T03:32:11.600Z,20.90
2022-11-28T03:33:11.600Z,20.90
2022-11-28T03:34:11.687Z,22.51
2022-11-28T03:35:11.768Z,20.58
2022-11-28T03:36:11.839Z,21.87
2022-11-28T03:37:11.938Z,20.58
2022-11-28T03:38:12.043Z,22.51
2022-11-28T03:39:12.132Z,20.90
2022-11-28T03:40:12.189Z,20.90
2022-11-28T03:41:12.274Z,20.58
2022-11-28T03:42:12.339Z,21.22
2022-11-28T03:43:12.442Z,20.58
2022-11-28T03:44:12.654Z,22.51
2022-11-28T03:45:12.586Z,20.90
2022-11-28T03:46:12.755Z,21.54
2022-11-28T03:47:12.807Z,20.58
2022-11-28T03:48:12.862Z,20.58
2022-11-28T03:49:12.937Z,20.58
2022-11-28T03:50:13.111Z,20.58
2022-11-28T03:51:13.098Z,20.58
2022-11-28T03:52:19.135Z,20.90
2022-11-28T03:53:13.235Z,20.25
2022-11-28T03:54:13.338Z,20.58
2022-11-28T03:55:13.411Z,20.90
2022-11-28T03:56:13.668Z,20.58
2022-11-28T03:57:13.595Z,21.87
2022-11-28T03:58:13.660Z,20.58
2022-11-28T03:59:13.725Z,21.22
2022-11-28T04:00:13.823Z,20.90
2022-11-28T04:01:13.959Z,20.58
2022-11-28T04:02:13.995Z,20.58
2022-11-28T04:03:14.124Z,20.58
2022-11-28T04:04:14.161Z,22.51
2022-11-28T04:05:14.239Z,22.51
2022-11-28T04:06:14.334Z,20.25
2022-11-28T04:07:14.472Z,20.58
2022-11-28T04:08:14.512Z,20.90
2022-11-28T04:09:14.837Z,21.22
2022-11-28T04:10:14.641Z,20.58
2022-11-28T04:11:14.727Z,20.90
2022-11-28T04:12:14.783Z,20.90
2022-11-28T04:13:14.861Z,20.90
2022-11-28T04:14:15.057Z,20.90
2022-11-28T04:15:15.053Z,20.90
2022-11-28T04:16:15.184Z,21.22
2022-11-28T04:17:15.210Z,20.90
2022-11-28T04:18:15.293Z,20.58
2022-11-28T04:19:15.398Z,21.87
2022-11-28T04:20:15.477Z,20.25
2022-11-28T04:21:15.531Z,20.58
2022-11-28T04:22:15.629Z,20.25
2022-11-28T04:23:21.698Z,20.58
2022-11-28T04:24:15.829Z,20.90
2022-11-28T04:25:15.920Z,20.90
2022-11-28T04:26:16.009Z,20.90
2022-11-28T04:27:16.073Z,20.25
2022-11-28T04:28:16.135Z,20.58
2022-11-28T04:29:16.214Z,20.25
2022-11-28T04:30:16.301Z,20.58
2022-11-28T04:31:16.417Z,20.58
2022-11-28T04:32:16.468Z,20.90
2022-11-28T04:33:16.556Z,20.58
2022-11-28T04:34:16.636Z,20.58
2022-11-28T04:35:16.695Z,20.58
2022-11-28T04:36:16.776Z,20.90
2022-11-28T04:37:16.877Z,21.22
2022-11-28T04:38:17.053Z,20.90
2022-11-28T04:39:17.013Z,20.90
2022-11-28T04:40:17.090Z,20.58
2022-11-28T04:41:17.180Z,20.58
2022-11-28T04:42:17.243Z,21.22
2022-11-28T04:43:17.329Z,20.90
2022-11-28T04:44:17.516Z,20.25
2022-11-28T04:45:17.473Z,21.22
2022-11-28T04:46:17.628Z,20.90
2022-11-28T04:47:17.664Z,20.90
2022-11-28T04:48:17.765Z,20.90
2022-11-28T04:49:17.853Z,21.22
2022-11-28T04:50:18.033Z,20.90
2022-11-28T04:51:18.032Z,21.22
2022-11-28T04:52:18.103Z,20.90
2022-11-28T04:53:18.156Z,20.90
2022-11-28T04:54:24.225Z,20.90
2022-11-28T04:55:18.346Z,20.58
2022-11-28T04:56:18.453Z,20.58
2022-11-28T04:57:18.496Z,22.51
2022-11-28T04:58:18.561Z,20.58
2022-11-28T04:59:18.665Z,20.25
2022-11-28T05:00:18.728Z,21.87
2022-11-28T05:01:18.865Z,20.58
2022-11-28T05:02:18.918Z,20.90
2022-11-28T05:03:18.962Z,20.25
2022-11-28T05:04:19.044Z,20.58
2022-11-28T05:05:19.154Z,20.58
2022-11-28T05:06:19.229Z,20.90
2022-11-28T05:07:19.353Z,20.90
2022-11-28T05:08:19.384Z,20.90
2022-11-28T05:09:19.475Z,22.51
2022-11-28T05:10:19.538Z,21.87
2022-11-28T05:11:19.624Z,20.58
2022-11-28T05:12:19.714Z,20.90
2022-11-28T05:13:19.770Z,20.90
2022-11-28T05:14:19.867Z,21.54
2022-11-28T05:15:19.961Z,20.90
2022-11-28T05:16:20.098Z,20.90
2022-11-28T05:17:20.109Z,21.54
2022-11-28T05:18:20.304Z,20.90
2022-11-28T05:19:20.526Z,20.90
2022-11-28T05:20:20.361Z,22.83
2022-11-28T05:21:20.468Z,20.90
2022-11-28T05:22:20.527Z,20.58
2022-11-28T05:23:20.708Z,20.58
2022-11-28T05:24:22.391Z,21.54
2022-11-28T05:25:26.755Z,20.58
2022-11-28T05:26:20.875Z,21.54
2022-11-28T05:27:20.949Z,20.90
2022-11-28T05:28:21.119Z,21.22
2022-11-28T05:29:21.159Z,20.90
2022-11-28T05:30:21.190Z,21.22
2022-11-28T05:31:21.361Z,21.22
2022-11-28T05:32:21.369Z,20.58
2022-11-28T05:33:21.429Z,20.90
2022-11-28T05:34:21.602Z,20.58
2022-11-28T05:35:21.599Z,20.25
2022-11-28T05:36:21.659Z,21.22
2022-11-28T05:37:21.742Z,21.22
2022-11-28T05:38:21.824Z,20.25
2022-11-28T05:39:21.933Z,21.22
2022-11-28T05:40:22.010Z,20.90
2022-11-28T05:41:22.082Z,22.19
2022-11-28T05:42:22.164Z,20.25
2022-11-28T05:43:22.201Z,21.54
2022-11-28T05:44:26.711Z,20.58
2022-11-28T05:45:22.490Z,20.90
2022-11-28T05:46:22.569Z,20.25
2022-11-28T05:47:22.551Z,22.51
2022-11-28T05:48:22.624Z,20.58
2022-11-28T05:49:22.725Z,20.90
2022-11-28T05:50:22.834Z,20.90
2022-11-28T05:51:22.917Z,20.90
2022-11-28T05:52:23.101Z,20.58
2022-11-28T05:53:23.069Z,20.90
2022-11-28T05:54:23.152Z,20.58
2022-11-28T05:55:23.234Z,20.90
2022-11-28T05:56:29.272Z,20.90
2022-11-28T05:57:23.404Z,21.54
2022-11-28T05:58:23.525Z,20.58
2022-11-28T05:59:23.515Z,20.90
2022-11-28T06:00:23.625Z,20.90
2022-11-28T06:01:23.682Z,20.90
2022-11-28T06:02:23.825Z,20.58
2022-11-28T06:03:23.852Z,20.90
2022-11-28T06:04:24.067Z,20.90
2022-11-28T06:05:41.563Z,20.58
2022-11-28T06:06:24.041Z,20.90
2022-11-28T06:07:24.216Z,20.58
2022-11-28T06:08:24.196Z,20.90
2022-11-28T06:09:26.084Z,21.22
2022-11-28T06:10:24.469Z,21.54
2022-11-28T06:11:24.437Z,22.51
2022-11-28T06:12:24.548Z,20.90
2022-11-28T06:13:24.619Z,22.51
2022-11-28T06:14:24.739Z,21.22
2022-11-28T06:15:24.792Z,20.58
2022-11-28T06:16:25.032Z,20.90
2022-11-28T06:17:24.962Z,20.90
2022-11-28T06:18:25.037Z,20.90
2022-11-28T06:19:25.130Z,20.58
2022-11-28T06:20:25.210Z,21.22
2022-11-28T06:21:25.318Z,20.90
2022-11-28T06:22:25.479Z,20.90
2022-11-28T06:23:25.477Z,20.90
2022-11-28T06:24:25.572Z,20.90
2022-11-28T06:25:25.656Z,20.90
2022-11-28T06:26:25.713Z,21.22
2022-11-28T06:27:32.065Z,20.90
2022-11-28T06:28:25.883Z,20.25
2022-11-28T06:29:25.953Z,20.90
2022-11-28T06:30:26.049Z,22.19
2022-11-28T06:31:26.190Z,21.22
2022-11-28T06:32:26.221Z,21.22
2022-11-28T06:33:26.429Z,20.90
2022-11-28T06:34:26.372Z,20.90
2022-11-28T06:35:26.467Z,22.19
2022-11-28T06:36:26.669Z,21.87
2022-11-28T06:37:26.668Z,22.51
2022-11-28T06:38:26.838Z,20.90
2022-11-28T06:39:26.815Z,20.90
2022-11-28T06:40:26.897Z,20.58
2022-11-28T06:41:26.954Z,21.87
2022-11-28T06:42:27.033Z,21.22
2022-11-28T06:43:27.132Z,21.22
2022-11-28T06:44:27.255Z,20.90
2022-11-28T06:45:27.324Z,21.22
2022-11-28T06:46:27.496Z,21.22
2022-11-28T06:47:27.458Z,20.90
2022-11-28T06:48:27.548Z,20.90
2022-11-28T06:49:27.781Z,21.87
2022-11-28T06:50:27.752Z,21.22
2022-11-28T06:51:27.821Z,20.90
2022-11-28T06:52:27.898Z,21.22
2022-11-28T06:53:31.433Z,20.58
2022-11-28T06:54:28.054Z,20.58
2022-11-28T06:55:28.155Z,22.51
2022-11-28T06:56:28.222Z,20.90
2022-11-28T06:57:28.278Z,21.22
2022-11-28T06:58:34.327Z,21.22
2022-11-28T06:59:28.431Z,21.22
2022-11-28T07:00:28.619Z,21.22
2022-11-28T07:01:28.605Z,20.90
2022-11-28T07:02:28.713Z,20.90
2022-11-28T07:03:28.804Z,22.51
2022-11-28T07:04:28.810Z,20.90
2022-11-28T07:05:28.890Z,21.22
2022-11-28T07:06:28.989Z,20.58
2022-11-28T07:07:29.108Z,20.90
2022-11-28T07:08:29.188Z,21.22
2022-11-28T07:09:29.220Z,21.54
2022-11-28T07:10:29.379Z,20.58
2022-11-28T07:11:29.402Z,20.90
2022-11-28T07:12:29.589Z,21.87
2022-11-28T07:13:29.571Z,20.90
2022-11-28T07:14:29.705Z,20.90
2022-11-28T07:15:29.750Z,20.90
2022-11-28T07:16:29.885Z,21.22
2022-11-28T07:17:29.931Z,21.22
2022-11-28T07:18:30.119Z,22.51
2022-11-28T07:19:30.085Z,20.90
2022-11-28T07:20:30.164Z,21.22
2022-11-28T07:21:30.229Z,21.22
2022-11-28T07:22:30.322Z,21.22
2022-11-28T07:23:30.385Z,21.22
2022-11-28T07:24:30.570Z,21.22
2022-11-28T07:25:30.521Z,22.51
2022-11-28T07:26:30.616Z,20.90
2022-11-28T07:27:30.721Z,20.90
2022-11-28T07:28:30.793Z,21.54
2022-11-28T07:29:37.103Z,20.90
2022-11-28T07:30:30.969Z,20.90
2022-11-28T07:31:31.105Z,20.90
2022-11-28T07:32:31.143Z,20.90
2022-11-28T07:33:31.243Z,20.90
2022-11-28T07:34:31.343Z,21.54
2022-11-28T07:35:31.441Z,21.22
2022-11-28T07:36:31.510Z,20.90
2022-11-28T07:37:31.589Z,21.22
2022-11-28T07:38:31.657Z,21.22
2022-11-28T07:39:31.733Z,20.90
2022-11-28T07:40:31.833Z,20.90
2022-11-28T07:41:31.890Z,21.22
2022-11-28T07:42:31.986Z,21.54
2022-11-28T07:43:32.027Z,20.90
2022-11-28T07:44:32.094Z,20.90
2022-11-28T07:45:53.505Z,21.87
2022-11-28T07:46:32.496Z,21.87
2022-11-28T07:47:32.344Z,22.51
2022-11-28T07:48:32.432Z,20.58
2022-11-28T07:49:32.491Z,20.90
2022-11-28T07:50:32.592Z,21.22
2022-11-28T07:51:32.693Z,21.22
2022-11-28T07:52:32.752Z,20.25
2022-11-28T07:53:32.831Z,19.93
2022-11-28T07:54:32.908Z,19.61
2022-11-28T07:55:33.005Z,19.61
2022-11-28T07:56:57.242Z,18.96
2022-11-28T07:57:33.224Z,18.64
2022-11-28T07:58:33.279Z,18.32
2022-11-28T07:59:33.345Z,18.32
2022-11-28T08:00:39.397Z,18.32
2022-11-28T08:01:33.520Z,20.58
2022-11-28T08:02:33.761Z,18.00
2022-11-28T08:03:33.687Z,18.32
2022-11-28T08:04:33.813Z,17.68
2022-11-28T08:05:33.866Z,18.32
2022-11-28T08:06:33.939Z,18.96
2022-11-28T08:07:34.081Z,18.32
2022-11-28T08:08:34.200Z,18.32
2022-11-28T08:09:34.183Z,18.32
2022-11-28T08:10:34.257Z,19.93
2022-11-28T08:11:34.349Z,18.00
2022-11-28T08:12:34.436Z,18.64
2022-11-28T08:13:34.516Z,18.00
2022-11-28T08:14:34.572Z,18.64
2022-11-28T08:15:35.514Z,18.32
2022-11-28T08:16:34.888Z,20.25
2022-11-28T08:17:34.779Z,18.32
2022-11-28T08:18:34.860Z,18.64
2022-11-28T08:19:35.512Z,18.64
2022-11-28T08:20:35.051Z,18.32
2022-11-28T08:21:35.153Z,18.64
2022-11-28T08:22:35.230Z,18.64
2022-11-28T08:23:35.317Z,18.32
2022-11-28T08:24:35.387Z,19.61
2022-11-28T08:25:35.487Z,18.32
2022-11-28T08:26:35.570Z,18.32
2022-11-28T08:27:35.626Z,18.96
2022-11-28T08:28:35.723Z,20.58
2022-11-28T08:29:35.800Z,18.96
2022-11-28T08:30:35.924Z,18.32
2022-11-28T08:31:42.155Z,18.32
2022-11-28T08:32:36.024Z,18.64
2022-11-28T08:33:36.104Z,18.96
2022-11-28T08:34:36.199Z,18.32
2022-11-28T08:35:36.269Z,18.64
2022-11-28T08:36:36.372Z,18.96
2022-11-28T08:37:36.475Z,18.96
2022-11-28T08:38:36.547Z,19.29
2022-11-28T08:39:36.632Z,18.64
2022-11-28T08:40:36.714Z,18.64
2022-11-28T08:41:36.810Z,18.64
2022-11-28T08:42:36.927Z,18.64
2022-11-28T08:43:37.100Z,20.58
2022-11-28T08:44:37.150Z,20.25
2022-11-28T08:45:37.206Z,17.68
2022-11-28T08:46:37.256Z,18.00
2022-11-28T08:47:37.358Z,17.35
2022-11-28T08:48:37.588Z,17.35
2022-11-28T08:49:37.533Z,17.03
2022-11-28T08:50:37.628Z,16.71
2022-11-28T08:51:37.697Z,16.71
2022-11-28T08:52:37.808Z,18.00
2022-11-28T08:53:37.878Z,16.39
2022-11-28T08:54:37.989Z,16.39
2022-11-28T08:55:41.753Z,15.74
2022-11-28T08:56:38.139Z,16.39
2022-11-28T08:57:38.217Z,16.06
2022-11-28T08:58:38.315Z,16.71
2022-11-28T08:59:38.379Z,16.39
2022-11-28T09:00:38.518Z,17.03
2022-11-28T09:01:38.667Z,16.71
2022-11-28T09:02:44.621Z,17.03
2022-11-28T09:03:38.772Z,17.03
2022-11-28T09:04:38.822Z,16.71
2022-11-28T09:05:38.926Z,17.35
2022-11-28T09:06:38.990Z,17.35
2022-11-28T09:07:39.094Z,17.68
2022-11-28T09:08:39.153Z,18.00
2022-11-28T09:09:39.251Z,17.68
2022-11-28T09:10:39.326Z,17.68
2022-11-28T09:11:39.429Z,17.68
2022-11-28T09:12:39.511Z,18.00
2022-11-28T09:13:39.570Z,18.00
2022-11-28T09:14:39.639Z,18.32
2022-11-28T09:15:39.708Z,18.32
2022-11-28T09:16:39.891Z,19.93
2022-11-28T09:17:39.902Z,19.93
2022-11-28T09:18:40.060Z,18.00
2022-11-28T09:19:40.413Z,18.64
2022-11-28T09:20:40.108Z,19.61
2022-11-28T09:21:40.189Z,18.32
2022-11-28T09:22:40.264Z,18.32
2022-11-28T09:23:40.363Z,18.32
2022-11-28T09:24:40.480Z,18.64
2022-11-28T09:25:40.519Z,19.29
2022-11-28T09:26:40.634Z,18.32
2022-11-28T09:27:40.730Z,18.64
2022-11-28T09:28:40.812Z,18.96
2022-11-28T09:29:41.188Z,19.29
2022-11-28T09:30:41.127Z,19.29
2022-11-28T09:31:46.962Z,19.29
2022-11-28T09:32:41.167Z,18.96
2022-11-28T09:33:47.197Z,18.96
2022-11-28T09:34:41.295Z,19.29
2022-11-28T09:35:41.372Z,19.29
2022-11-28T09:36:41.573Z,18.96
2022-11-28T09:37:41.529Z,19.29
2022-11-28T09:38:41.629Z,19.61
2022-11-28T09:39:57.421Z,18.64
2022-11-28T09:40:41.763Z,19.61
2022-11-28T09:41:41.835Z,19.29
2022-11-28T09:42:42.022Z,19.29
2022-11-28T09:43:42.000Z,19.61
2022-11-28T09:44:42.059Z,19.93
2022-11-28T09:45:42.216Z,19.61
2022-11-28T09:46:42.242Z,19.29
2022-11-28T09:47:42.322Z,19.29
2022-11-28T09:48:42.523Z,19.61
2022-11-28T09:49:42.918Z,19.93
2022-11-28T09:50:42.585Z,20.25
2022-11-28T09:51:42.665Z,19.61
2022-11-28T09:52:42.857Z,19.93
2022-11-28T09:53:42.869Z,19.61
2022-11-28T09:54:42.981Z,20.58
2022-11-28T09:55:43.019Z,20.90
2022-11-28T09:56:43.106Z,19.61
2022-11-28T09:57:43.203Z,20.25
2022-11-28T09:58:43.290Z,19.93
2022-11-28T09:59:43.660Z,19.93
2022-11-28T10:00:43.479Z,19.93
2022-11-28T10:01:43.542Z,19.93
2022-11-28T10:02:43.645Z,20.25
2022-11-28T10:03:43.774Z,19.93
2022-11-28T10:04:49.834Z,20.58
2022-11-28T10:05:43.878Z,20.58
2022-11-28T10:06:44.093Z,20.25
2022-11-28T10:07:44.115Z,20.58
2022-11-28T10:08:44.114Z,20.25
2022-11-28T10:09:44.686Z,20.58
2022-11-28T10:10:44.295Z,19.93
2022-11-28T10:11:44.371Z,20.58
2022-11-28T10:12:44.463Z,20.58
2022-11-28T10:14:06.503Z,19.93
2022-11-28T10:14:44.628Z,20.58
2022-11-28T10:15:44.722Z,20.25
2022-11-28T10:16:45.070Z,20.90
2022-11-28T10:17:44.866Z,20.58
2022-11-28T10:18:45.019Z,20.58
2022-11-28T10:20:00.649Z,20.90
2022-11-28T10:20:45.098Z,20.58
2022-11-28T10:21:45.187Z,20.25
2022-11-28T10:22:45.245Z,20.90
2022-11-28T10:23:45.324Z,20.90
2022-11-28T10:24:45.434Z,20.25
2022-11-28T10:25:45.466Z,21.22
2022-11-28T10:26:45.552Z,19.93
2022-11-28T10:27:45.652Z,22.19
2022-11-28T10:28:45.709Z,20.90
2022-11-28T10:29:46.214Z,20.58
2022-11-28T10:30:46.013Z,20.90
2022-11-28T10:31:46.016Z,20.58
2022-11-28T10:32:46.102Z,21.54
2022-11-28T10:33:46.204Z,20.90
2022-11-28T10:34:46.300Z,20.58
2022-11-28T10:35:52.685Z,20.90
2022-11-28T10:36:46.464Z,22.19
2022-11-28T10:37:46.550Z,20.90
2022-11-28T10:38:46.620Z,20.58
2022-11-28T10:39:46.710Z,20.58
2022-11-28T10:40:46.808Z,22.51
2022-11-28T10:41:46.992Z,20.90
2022-11-28T10:42:46.968Z,20.58
2022-11-28T10:43:47.066Z,21.22
2022-11-28T10:44:47.167Z,20.90
2022-11-28T10:45:47.333Z,20.90
2022-11-28T10:46:47.384Z,20.90
2022-11-28T10:47:47.470Z,20.58
2022-11-28T10:48:47.536Z,21.22
2022-11-28T10:49:47.633Z,21.22
2022-11-28T10:50:47.697Z,20.90
2022-11-28T10:51:47.768Z,20.90
2022-11-28T10:52:47.828Z,20.90
2022-11-28T10:53:48.024Z,20.90
2022-11-28T10:54:48.032Z,21.22
2022-11-28T10:55:48.108Z,22.51
2022-11-28T10:56:48.204Z,21.22
2022-11-28T10:57:48.294Z,20.90
2022-11-28T10:58:48.368Z,20.90
2022-11-28T10:59:48.581Z,20.90
2022-11-28T11:00:48.559Z,21.22
2022-11-28T11:01:50.366Z,21.22
2022-11-28T11:02:48.723Z,21.22
2022-11-28T11:03:48.822Z,22.83
2022-11-28T11:04:48.978Z,21.22
2022-11-28T11:05:49.094Z,21.22
2022-11-28T11:07:08.857Z,21.22
2022-11-28T11:07:49.198Z,21.22
2022-11-28T11:08:49.245Z,20.90
2022-11-28T11:09:49.289Z,21.54
2022-11-28T11:10:49.354Z,21.54
2022-11-28T11:11:49.528Z,21.22
2022-11-28T11:12:49.520Z,21.22
2022-11-28T11:13:49.608Z,21.22
2022-11-28T11:14:49.659Z,22.51
2022-11-28T11:15:49.768Z,23.15
2022-11-28T11:16:49.837Z,20.90
2022-11-28T11:17:49.943Z,21.54
2022-11-28T11:18:50.006Z,21.22
2022-11-28T11:19:50.069Z,20.90
2022-11-28T11:20:50.143Z,21.54
2022-11-28T11:21:50.245Z,21.22
2022-11-28T11:22:50.331Z,21.54
2022-11-28T11:23:50.479Z,21.22
2022-11-28T11:24:50.441Z,21.22
2022-11-28T11:25:50.532Z,23.48
2022-11-28T11:26:50.597Z,21.87
2022-11-28T11:27:50.681Z,21.22
2022-11-28T11:28:50.771Z,21.87
2022-11-28T11:29:51.721Z,21.22
2022-11-28T11:30:50.937Z,21.87
2022-11-28T11:31:50.983Z,21.22
2022-11-28T11:32:51.756Z,22.19
2022-11-28T11:33:51.215Z,23.48
2022-11-28T11:34:51.277Z,21.22
2022-11-28T11:35:51.420Z,21.54
2022-11-28T11:36:51.377Z,21.54
2022-11-28T11:37:57.468Z,21.87
2022-11-28T11:38:51.563Z,21.87
2022-11-28T11:39:51.649Z,21.54
2022-11-28T11:40:51.756Z,21.54
2022-11-28T11:41:51.841Z,21.54
2022-11-28T11:42:51.932Z,21.87
2022-11-28T11:43:52.016Z,21.22
2022-11-28T11:44:52.126Z,21.54
2022-11-28T11:45:52.677Z,21.54
2022-11-28T11:46:52.322Z,21.22
2022-11-28T11:47:52.323Z,21.54
2022-11-28T11:48:52.427Z,21.22
2022-11-28T11:49:52.517Z,21.54
2022-11-28T11:50:52.599Z,22.83
2022-11-28T11:51:52.834Z,21.54
2022-11-28T11:52:52.772Z,21.87
2022-11-28T11:53:52.870Z,21.54
2022-11-28T11:54:52.942Z,23.48
2022-11-28T11:55:52.991Z,21.54
2022-11-28T11:57:05.692Z,21.87
2022-11-28T11:57:53.197Z,21.54
2022-11-28T11:58:53.257Z,21.22
2022-11-28T11:59:53.335Z,22.19
2022-11-28T12:00:53.438Z,21.87
2022-11-28T12:01:53.547Z,21.54
2022-11-28T12:02:53.821Z,21.87
2022-11-28T12:03:53.784Z,21.54
2022-11-28T12:04:55.564Z,23.15
2022-11-28T12:06:53.922Z,21.87
2022-11-28T12:07:54.122Z,21.87
2022-11-28T12:09:00.176Z,21.87
2022-11-28T12:09:54.823Z,21.22
2022-11-28T12:10:54.284Z,21.22
2022-11-28T12:11:54.538Z,21.54
2022-11-28T12:12:54.448Z,21.22
2022-11-28T12:13:54.535Z,21.22
2022-11-28T12:14:54.698Z,21.54
2022-11-28T12:15:54.752Z,23.48
2022-11-28T12:16:54.799Z,20.90
2022-11-28T12:17:58.853Z,21.22
2022-11-28T12:18:54.973Z,23.48
2022-11-28T12:19:55.081Z,21.22
2022-11-28T12:20:55.166Z,21.87
2022-11-28T12:21:55.209Z,21.22
2022-11-28T12:22:55.302Z,20.90
2022-11-28T12:23:55.396Z,21.22
2022-11-28T12:24:55.471Z,21.22
2022-11-28T12:25:55.668Z,21.87
2022-11-28T12:26:55.624Z,21.54
2022-11-28T12:27:55.704Z,21.87
2022-11-28T12:28:55.794Z,21.54
2022-11-28T12:29:55.877Z,21.87
2022-11-28T12:30:56.019Z,21.87
2022-11-28T12:31:56.171Z,21.22
2022-11-28T12:32:56.132Z,21.54
2022-11-28T12:33:56.243Z,20.90
2022-11-28T12:34:56.320Z,21.54
2022-11-28T12:36:00.282Z,21.22
2022-11-28T12:36:56.587Z,23.15
2022-11-28T12:38:12.306Z,21.87
2022-11-28T12:38:56.652Z,21.87
2022-11-28T12:40:02.743Z,21.22
2022-11-28T12:40:56.839Z,21.22
2022-11-28T12:41:56.927Z,21.22
2022-11-28T12:42:57.134Z,21.54
2022-11-28T12:43:57.099Z,22.19
2022-11-28T12:44:57.206Z,21.54
2022-11-28T12:45:57.316Z,21.22
2022-11-28T12:46:57.418Z,21.22
2022-11-28T12:47:57.473Z,21.54
2022-11-28T12:48:57.559Z,21.22
2022-11-28T12:49:57.633Z,21.54
2022-11-28T12:50:57.709Z,21.22
2022-11-28T12:51:57.782Z,20.90
2022-11-28T12:52:57.848Z,21.22
2022-11-28T12:53:57.948Z,21.54
2022-11-28T12:54:58.011Z,20.90